createdAt,value
2018-07-26T00:00:15.877Z,28.86
2018-07-26T00:01:25.331Z,28.92
2018-07-26T00:02:34.221Z,28.95
2018-07-26T00:03:43.378Z,28.86
2018-07-26T00:04:52.536Z,28.86
2018-07-26T00:06:01.425Z,28.93
2018-07-26T00:07:10.831Z,28.89
2018-07-26T00:08:19.981Z,28.86
2018-07-26T00:09:29.637Z,28.83
2018-07-26T00:10:38.785Z,28.83
2018-07-26T00:11:48.187Z,28.85
2018-07-26T00:12:57.327Z,28.89
2018-07-26T00:14:06.982Z,28.89
2018-07-26T00:15:16.384Z,28.9
2018-07-26T00:16:25.528Z,28.83
2018-07-26T00:17:34.688Z,28.88
2018-07-26T00:18:43.575Z,28.83
2018-07-26T00:19:52.751Z,28.88
2018-07-26T00:21:02.678Z,28.83
2018-07-26T00:22:12.342Z,28.89
2018-07-26T00:23:21.241Z,28.85
2018-07-26T00:24:30.387Z,28.78
2018-07-26T00:25:39.803Z,28.81
2018-07-26T00:26:48.693Z,28.85
2018-07-26T00:27:58.364Z,28.81
2018-07-26T00:29:07.778Z,28.78
2018-07-26T00:30:17.191Z,28.81
2018-07-26T00:31:26.337Z,28.78
2018-07-26T00:32:35.227Z,28.78
2018-07-26T00:33:44.117Z,28.8
2018-07-26T00:34:53.777Z,28.8
2018-07-26T00:36:02.931Z,28.83
2018-07-26T00:37:12.332Z,28.8
2018-07-26T00:38:21.763Z,28.77
2018-07-26T00:39:30.911Z,28.81
2018-07-26T00:40:40.338Z,28.74
2018-07-26T00:41:49.724Z,28.77
2018-07-26T00:42:58.677Z,28.81
2018-07-26T00:44:08.073Z,28.78
2018-07-26T00:45:17.488Z,28.77
2018-07-26T00:46:26.647Z,28.76
2018-07-26T00:47:36.049Z,28.74
2018-07-26T00:48:45.586Z,28.73
2018-07-26T00:49:55.500Z,28.8
2018-07-26T00:51:04.659Z,28.71
2018-07-26T00:52:14.078Z,28.77
2018-07-26T00:53:23.492Z,28.71
2018-07-26T00:54:32.649Z,28.7
2018-07-26T00:55:41.277Z,28.68
2018-07-26T00:56:50.215Z,28.74
2018-07-26T00:58:00.160Z,28.7
2018-07-26T00:59:09.567Z,28.73
2018-07-26T01:00:18.969Z,28.78
2018-07-26T01:01:28.105Z,28.71
2018-07-26T01:02:37.765Z,28.71
2018-07-26T01:03:46.915Z,28.76
2018-07-26T01:04:56.318Z,28.73
2018-07-26T01:06:05.475Z,28.74
2018-07-26T01:07:15.140Z,28.74
2018-07-26T01:08:24.556Z,28.73
2018-07-26T01:09:33.807Z,28.7
2018-07-26T01:10:43.888Z,28.7
2018-07-26T01:11:52.784Z,28.76
2018-07-26T01:13:02.452Z,28.74
2018-07-26T01:14:11.869Z,28.76
2018-07-26T01:15:21.554Z,28.7
2018-07-26T01:16:30.693Z,28.71
2018-07-26T01:17:40.100Z,28.77
2018-07-26T01:18:49.259Z,28.74
2018-07-26T01:19:58.931Z,28.71
2018-07-26T01:21:08.587Z,28.73
2018-07-26T01:22:17.734Z,28.7
2018-07-26T01:23:26.877Z,28.77
2018-07-26T01:24:36.280Z,28.74
2018-07-26T01:25:45.426Z,28.76
2018-07-26T01:26:54.837Z,28.74
2018-07-26T01:28:04.484Z,28.78
2018-07-26T01:29:13.623Z,28.74
2018-07-26T01:30:22.780Z,28.7
2018-07-26T01:31:31.922Z,28.68
2018-07-26T01:32:40.559Z,28.76
2018-07-26T01:33:49.732Z,28.68
2018-07-26T01:34:59.634Z,28.7
2018-07-26T01:36:09.038Z,28.73
2018-07-26T01:37:18.688Z,28.71
2018-07-26T01:38:28.101Z,28.7
2018-07-26T01:39:38.018Z,28.7
2018-07-26T01:40:47.418Z,28.7
2018-07-26T01:41:56.566Z,28.67
2018-07-26T01:43:05.971Z,28.7
2018-07-26T01:44:15.113Z,28.7
2018-07-26T01:45:24.008Z,28.74
2018-07-26T01:46:33.422Z,28.78
2018-07-26T01:47:43.097Z,28.7
2018-07-26T01:48:52.750Z,28.73
2018-07-26T01:50:01.901Z,28.73
2018-07-26T01:51:11.301Z,28.73
2018-07-26T01:52:20.966Z,28.67
2018-07-26T01:53:30.644Z,28.73
2018-07-26T01:54:40.355Z,28.68
2018-07-26T01:55:50.012Z,28.67
2018-07-26T01:56:59.410Z,28.66
2018-07-26T01:58:08.834Z,28.64
2018-07-26T01:59:18.499Z,28.67
2018-07-26T02:00:27.907Z,28.66
2018-07-26T02:01:37.928Z,28.62
2018-07-26T02:02:47.391Z,28.66
2018-07-26T02:03:57.053Z,28.7
2018-07-26T02:05:05.980Z,28.61
2018-07-26T02:06:15.654Z,28.68
2018-07-26T02:07:25.312Z,28.66
2018-07-26T02:08:34.210Z,28.71
2018-07-26T02:09:43.891Z,28.68
2018-07-26T02:10:53.315Z,28.62
2018-07-26T02:12:02.978Z,28.71
2018-07-26T02:13:12.910Z,28.61
2018-07-26T02:14:22.053Z,28.64
2018-07-26T02:15:30.950Z,28.68
2018-07-26T02:16:40.098Z,28.68
2018-07-26T02:17:49.779Z,28.7
2018-07-26T02:18:59.451Z,28.7
2018-07-26T02:20:08.862Z,28.68
2018-07-26T02:21:17.754Z,28.68
2018-07-26T02:22:26.897Z,28.66
2018-07-26T02:23:35.795Z,28.66
2018-07-26T02:24:44.684Z,28.73
2018-07-26T02:25:54.110Z,28.68
2018-07-26T02:27:03.794Z,28.67
2018-07-26T02:28:14.141Z,28.56
2018-07-26T02:29:23.543Z,28.59
2018-07-26T02:30:33.461Z,28.56
2018-07-26T02:31:42.626Z,28.54
2018-07-26T02:32:51.540Z,28.54
2018-07-26T02:34:00.977Z,28.52
2018-07-26T02:35:10.377Z,28.56
2018-07-26T02:36:20.047Z,28.59
2018-07-26T02:37:29.209Z,28.61
2018-07-26T02:38:38.376Z,28.56
2018-07-26T02:39:47.790Z,28.68
2018-07-26T02:40:57.481Z,28.56
2018-07-26T02:42:07.170Z,28.64
2018-07-26T02:43:16.336Z,28.61
2018-07-26T02:44:25.743Z,28.58
2018-07-26T02:45:35.159Z,28.58
2018-07-26T02:46:45.079Z,28.64
2018-07-26T02:47:54.736Z,28.62
2018-07-26T02:49:03.886Z,28.61
2018-07-26T02:50:12.796Z,28.62
2018-07-26T02:51:22.494Z,28.68
2018-07-26T02:52:32.455Z,28.59
2018-07-26T02:53:42.137Z,28.66
2018-07-26T02:54:51.817Z,28.71
2018-07-26T02:56:00.957Z,28.64
2018-07-26T02:57:10.621Z,28.66
2018-07-26T02:58:20.282Z,28.7
2018-07-26T02:59:30.293Z,28.62
2018-07-26T03:00:40.221Z,28.67
2018-07-26T03:01:49.897Z,28.66
2018-07-26T03:02:59.040Z,28.71
2018-07-26T03:04:08.449Z,28.64
2018-07-26T03:05:17.874Z,28.62
2018-07-26T03:06:27.556Z,28.64
2018-07-26T03:07:37.216Z,28.64
2018-07-26T03:08:46.379Z,28.74
2018-07-26T03:09:55.790Z,28.59
2018-07-26T03:11:05.193Z,28.58
2018-07-26T03:12:14.614Z,28.59
2018-07-26T03:13:24.015Z,28.59
2018-07-26T03:14:33.162Z,28.58
2018-07-26T03:15:42.830Z,28.58
2018-07-26T03:16:51.734Z,28.61
2018-07-26T03:18:00.887Z,28.58
2018-07-26T03:19:10.288Z,28.58
2018-07-26T03:20:19.946Z,28.62
2018-07-26T03:21:29.877Z,28.58
2018-07-26T03:22:39.826Z,28.59
2018-07-26T03:23:49.738Z,28.62
2018-07-26T03:24:58.894Z,28.56
2018-07-26T03:26:08.572Z,28.66
2018-07-26T03:27:18.251Z,28.58
2018-07-26T03:28:28.189Z,28.58
2018-07-26T03:29:37.335Z,28.56
2018-07-26T03:30:47.261Z,28.54
2018-07-26T03:31:56.914Z,28.56
2018-07-26T03:33:06.600Z,28.54
2018-07-26T03:34:16.039Z,28.59
2018-07-26T03:35:24.933Z,28.56
2018-07-26T03:36:34.081Z,28.59
2018-07-26T03:37:43.243Z,28.58
2018-07-26T03:38:52.401Z,28.52
2018-07-26T03:40:01.292Z,28.55
2018-07-26T03:41:10.693Z,28.56
2018-07-26T03:42:20.349Z,28.56
2018-07-26T03:43:30.134Z,28.51
2018-07-26T03:44:40.035Z,28.58
2018-07-26T03:45:49.710Z,28.61
2018-07-26T03:46:58.881Z,28.59
2018-07-26T03:48:08.334Z,28.67
2018-07-26T03:49:18.004Z,28.67
2018-07-26T03:50:27.148Z,28.58
2018-07-26T03:51:36.861Z,28.59
2018-07-26T03:52:45.762Z,28.58
2018-07-26T03:53:56.040Z,28.56
2018-07-26T03:55:05.731Z,28.67
2018-07-26T03:56:14.626Z,28.58
2018-07-26T03:57:24.281Z,28.64
2018-07-26T03:58:33.695Z,28.67
2018-07-26T03:59:42.588Z,28.66
2018-07-26T04:00:51.736Z,28.64
2018-07-26T04:02:00.687Z,28.7
2018-07-26T04:03:10.182Z,28.67
2018-07-26T04:04:19.079Z,28.7
2018-07-26T04:05:28.346Z,28.62
2018-07-26T04:06:37.562Z,28.68
2018-07-26T04:07:46.990Z,28.67
2018-07-26T04:08:56.132Z,28.64
2018-07-26T04:10:05.282Z,28.62
2018-07-26T04:11:14.430Z,28.59
2018-07-26T04:12:24.085Z,28.62
2018-07-26T04:13:32.983Z,28.64
2018-07-26T04:14:42.648Z,28.68
2018-07-26T04:15:52.055Z,28.56
2018-07-26T04:17:01.215Z,28.61
2018-07-26T04:18:10.409Z,28.64
2018-07-26T04:19:19.542Z,28.59
2018-07-26T04:20:28.432Z,28.66
2018-07-26T04:21:37.311Z,28.58
2018-07-26T04:22:46.968Z,28.52
2018-07-26T04:23:56.118Z,28.55
2018-07-26T04:25:05.530Z,28.54
2018-07-26T04:26:14.574Z,28.64
2018-07-26T04:27:23.780Z,28.54
2018-07-26T04:28:33.719Z,28.67
2018-07-26T04:29:43.383Z,28.56
2018-07-26T04:30:52.563Z,28.52
2018-07-26T04:32:02.030Z,28.62
2018-07-26T04:33:12.342Z,28.58
2018-07-26T04:34:21.741Z,28.61
2018-07-26T04:35:30.912Z,28.68
2018-07-26T04:36:40.319Z,28.59
2018-07-26T04:37:49.724Z,28.61
2018-07-26T04:38:59.128Z,28.62
2018-07-26T04:40:08.524Z,28.59
2018-07-26T04:41:18.441Z,28.61
2018-07-26T04:42:28.115Z,28.64
2018-07-26T04:43:37.279Z,28.68
2018-07-26T04:44:46.930Z,28.58
2018-07-26T04:45:56.076Z,28.62
2018-07-26T04:47:05.734Z,28.66
2018-07-26T04:48:15.137Z,28.64
2018-07-26T04:49:23.772Z,28.62
2018-07-26T04:50:33.168Z,28.66
2018-07-26T04:51:42.827Z,28.58
2018-07-26T04:52:52.608Z,28.66
2018-07-26T04:54:02.160Z,28.62
2018-07-26T04:55:11.829Z,28.61
2018-07-26T04:56:20.716Z,28.67
2018-07-26T04:57:30.117Z,28.67
2018-07-26T04:58:39.263Z,28.62
2018-07-26T04:59:48.928Z,28.64
2018-07-26T05:00:58.326Z,28.7
2018-07-26T05:02:07.731Z,28.68
2018-07-26T05:03:17.124Z,28.66
2018-07-26T05:04:26.526Z,28.66
2018-07-26T05:05:36.449Z,28.64
2018-07-26T05:06:45.077Z,28.67
2018-07-26T05:07:54.486Z,28.68
2018-07-26T05:09:04.167Z,28.73
2018-07-26T05:10:13.311Z,28.68
2018-07-26T05:11:22.716Z,28.71
2018-07-26T05:12:31.619Z,28.7
2018-07-26T05:13:40.765Z,28.73
2018-07-26T05:14:50.442Z,28.73
2018-07-26T05:15:59.843Z,28.73
2018-07-26T05:17:09.261Z,28.73
2018-07-26T05:18:18.463Z,28.77
2018-07-26T05:19:27.706Z,28.8
2018-07-26T05:20:37.103Z,28.8
2018-07-26T05:21:46.516Z,28.8
2018-07-26T05:22:55.407Z,28.8
2018-07-26T05:24:05.059Z,28.81
2018-07-26T05:25:14.514Z,28.83
2018-07-26T05:26:23.169Z,28.8
2018-07-26T05:27:32.062Z,28.85
2018-07-26T05:28:41.492Z,28.81
2018-07-26T05:29:50.646Z,28.86
2018-07-26T05:30:59.790Z,28.86
2018-07-26T05:32:08.934Z,28.89
2018-07-26T05:33:17.823Z,28.89
2018-07-26T05:34:27.226Z,28.77
2018-07-26T05:35:36.126Z,28.93
2018-07-26T05:36:45.774Z,28.89
2018-07-26T05:37:55.269Z,28.9
2018-07-26T05:39:04.118Z,28.93
2018-07-26T05:40:13.532Z,28.89
2018-07-26T05:41:22.959Z,28.89
2018-07-26T05:42:32.106Z,28.9
2018-07-26T05:43:40.987Z,28.93
2018-07-26T05:44:50.131Z,28.9
2018-07-26T05:45:59.532Z,28.95
2018-07-26T05:47:08.671Z,29
2018-07-26T05:48:17.325Z,29.02
2018-07-26T05:49:26.716Z,28.92
2018-07-26T05:50:35.678Z,29.04
2018-07-26T05:51:45.080Z,28.96
2018-07-26T05:52:53.972Z,28.92
2018-07-26T05:54:03.377Z,28.93
2018-07-26T05:55:12.776Z,28.93
2018-07-26T05:56:22.190Z,29.02
2018-07-26T05:57:32.129Z,29
2018-07-26T05:58:41.537Z,28.96
2018-07-26T05:59:50.694Z,28.89
2018-07-26T06:00:59.598Z,28.96
2018-07-26T06:02:08.738Z,28.96
2018-07-26T06:03:18.652Z,29.02
2018-07-26T06:04:28.066Z,29
2018-07-26T06:05:37.485Z,28.96
2018-07-26T06:06:46.882Z,29.04
2018-07-26T06:07:56.278Z,29.02
2018-07-26T06:09:05.427Z,29
2018-07-26T06:10:14.610Z,29
2018-07-26T06:11:23.759Z,29.11
2018-07-26T06:12:33.170Z,29.05
2018-07-26T06:13:42.068Z,28.98
2018-07-26T06:14:51.207Z,29
2018-07-26T06:16:00.357Z,29.02
2018-07-26T06:17:10.090Z,28.98
2018-07-26T06:18:19.869Z,28.98
2018-07-26T06:19:28.761Z,28.96
2018-07-26T06:20:38.433Z,29.04
2018-07-26T06:21:47.998Z,28.98
2018-07-26T06:22:57.659Z,29.06
2018-07-26T06:24:07.095Z,28.96
2018-07-26T06:25:16.719Z,28.98
2018-07-26T06:26:26.698Z,28.95
2018-07-26T06:27:36.371Z,29
2018-07-26T06:28:45.515Z,29
2018-07-26T06:29:55.371Z,29.05
2018-07-26T06:31:05.368Z,28.96
2018-07-26T06:32:14.795Z,29.04
2018-07-26T06:33:24.616Z,29
2018-07-26T06:34:34.667Z,28.98
2018-07-26T06:36:52.475Z,29.05
2018-07-26T06:38:01.906Z,28.93
2018-07-26T06:39:11.343Z,29.06
2018-07-26T06:40:20.505Z,28.98
2018-07-26T06:41:29.705Z,28.95
2018-07-26T06:42:38.618Z,29.06
2018-07-26T06:43:48.302Z,28.98
2018-07-26T06:44:57.470Z,29.08
2018-07-26T06:46:06.663Z,28.98
2018-07-26T06:47:15.970Z,29.04
2018-07-26T06:48:25.389Z,28.92
2018-07-26T06:49:34.797Z,29
2018-07-26T06:50:43.691Z,28.98
2018-07-26T06:51:52.607Z,29.04
2018-07-26T06:53:01.888Z,28.92
2018-07-26T06:54:11.370Z,28.98
2018-07-26T06:55:20.786Z,29.02
2018-07-26T06:56:30.208Z,28.98
2018-07-26T06:57:39.608Z,28.98
2018-07-26T06:58:48.506Z,28.92
2018-07-26T06:59:58.198Z,28.93
2018-07-26T07:01:07.104Z,29.04
2018-07-26T07:02:16.280Z,29.04
2018-07-26T07:03:25.686Z,28.98
2018-07-26T07:04:35.619Z,29.04
2018-07-26T07:05:45.293Z,28.98
2018-07-26T07:06:54.203Z,29.04
2018-07-26T07:08:03.633Z,29
2018-07-26T07:09:13.060Z,29.04
2018-07-26T07:10:22.463Z,29.06
2018-07-26T07:11:31.375Z,29.02
2018-07-26T07:12:40.824Z,28.96
2018-07-26T07:13:49.974Z,29.12
2018-07-26T07:14:59.141Z,29.08
2018-07-26T07:16:08.577Z,29.06
2018-07-26T07:17:17.996Z,29.05
2018-07-26T07:18:27.157Z,29.11
2018-07-26T07:19:37.091Z,29.11
2018-07-26T07:20:45.994Z,29.12
2018-07-26T07:21:55.448Z,29.05
2018-07-26T07:23:04.861Z,29.11
2018-07-26T07:24:14.812Z,29.12
2018-07-26T07:25:24.245Z,29.12
2018-07-26T07:26:33.673Z,29.05
2018-07-26T07:27:43.165Z,29.08
2018-07-26T07:28:52.758Z,29.08
2018-07-26T07:30:01.911Z,29.12
2018-07-26T07:31:11.081Z,29.11
2018-07-26T07:32:20.246Z,29.12
2018-07-26T07:33:29.408Z,29.09
2018-07-26T07:34:38.845Z,29.12
2018-07-26T07:35:48.334Z,29.15
2018-07-26T07:36:57.244Z,29.09
2018-07-26T07:38:06.131Z,29.06
2018-07-26T07:39:15.032Z,29.08
2018-07-26T07:40:24.530Z,29.02
2018-07-26T07:41:33.974Z,29.11
2018-07-26T07:42:43.380Z,29.14
2018-07-26T07:43:52.267Z,29.15
2018-07-26T07:45:01.433Z,29.12
2018-07-26T07:46:10.842Z,29.09
2018-07-26T07:47:20.996Z,29.16
2018-07-26T07:48:31.178Z,29.11
2018-07-26T07:49:40.864Z,29.14
2018-07-26T07:50:50.011Z,29.08
2018-07-26T07:51:59.440Z,29.11
2018-07-26T07:53:08.868Z,29.06
2018-07-26T07:54:18.305Z,29.18
2018-07-26T07:55:27.460Z,29.05
2018-07-26T07:56:36.876Z,29.18
2018-07-26T07:57:46.809Z,29.11
2018-07-26T07:58:55.958Z,29.06
2018-07-26T08:00:05.123Z,29.06
2018-07-26T08:01:14.537Z,29.12
2018-07-26T08:02:23.954Z,29.12
2018-07-26T08:03:32.595Z,29.15
2018-07-26T08:04:41.494Z,29.15
2018-07-26T08:05:50.890Z,29.15
2018-07-26T08:06:59.798Z,29.06
2018-07-26T08:08:09.204Z,29.05
2018-07-26T08:09:18.644Z,29.05
2018-07-26T08:10:27.807Z,29.11
2018-07-26T08:11:37.227Z,29.06
2018-07-26T08:12:47.002Z,29.09
2018-07-26T08:13:56.668Z,29.12
2018-07-26T08:15:05.832Z,29.06
2018-07-26T08:16:14.733Z,29.11
2018-07-26T08:17:24.137Z,29.11
2018-07-26T08:18:33.803Z,29.08
2018-07-26T08:19:42.998Z,29.11
2018-07-26T08:20:52.149Z,29.14
2018-07-26T08:22:01.323Z,29.12
2018-07-26T08:23:10.490Z,29.16
2018-07-26T08:24:19.383Z,29.14
2018-07-26T08:25:28.536Z,29.15
2018-07-26T08:26:37.953Z,29.11
2018-07-26T08:27:47.358Z,29.16
2018-07-26T08:28:57.279Z,29.08
2018-07-26T08:30:06.684Z,29.14
2018-07-26T08:31:16.345Z,29.24
2018-07-26T08:32:25.252Z,29.14
2018-07-26T08:33:34.407Z,29.09
2018-07-26T08:34:43.819Z,29.23
2018-07-26T08:35:52.969Z,29.23
2018-07-26T08:37:01.607Z,29.21
2018-07-26T08:38:11.034Z,29.24
2018-07-26T08:39:20.201Z,29.18
2018-07-26T08:40:29.357Z,29.16
2018-07-26T08:41:38.514Z,29.09
2018-07-26T08:42:47.926Z,29.16
2018-07-26T08:43:57.331Z,29.15
2018-07-26T08:45:06.482Z,29.15
2018-07-26T08:46:15.903Z,29.14
2018-07-26T08:47:25.316Z,29.16
2018-07-26T08:48:34.495Z,29.24
2018-07-26T08:49:43.654Z,29.16
2018-07-26T08:50:53.067Z,29.14
2018-07-26T08:52:02.220Z,29.18
2018-07-26T08:53:11.697Z,29.24
2018-07-26T08:54:21.886Z,29.18
2018-07-26T08:55:31.564Z,29.18
2018-07-26T08:56:41.238Z,29.26
2018-07-26T08:57:50.689Z,29.14
2018-07-26T08:59:00.114Z,29.23
2018-07-26T09:00:09.273Z,29.23
2018-07-26T09:01:18.850Z,29.23
2018-07-26T09:02:28.537Z,29.26
2018-07-26T09:03:37.954Z,29.23
2018-07-26T09:04:47.372Z,29.14
2018-07-26T09:05:56.064Z,29.12
2018-07-26T09:07:05.244Z,29.26
2018-07-26T09:08:14.653Z,29.24
2018-07-26T09:09:23.964Z,29.27
2018-07-26T09:10:33.648Z,29.24
2018-07-26T09:11:43.593Z,29.24
2018-07-26T09:12:52.486Z,29.26
2018-07-26T09:14:01.641Z,29.14
2018-07-26T09:15:11.316Z,29.15
2018-07-26T09:16:20.469Z,29.19
2018-07-26T09:17:29.902Z,29.26
2018-07-26T09:18:39.829Z,29.14
2018-07-26T09:19:50.102Z,29.26
2018-07-26T09:21:00.283Z,29.15
2018-07-26T09:22:09.730Z,29.26
2018-07-26T09:23:19.417Z,29.23
2018-07-26T09:24:28.689Z,29.16
2018-07-26T09:25:38.535Z,29.16
2018-07-26T09:26:47.689Z,29.15
2018-07-26T09:27:56.848Z,29.18
2018-07-26T09:29:06.457Z,29.14
2018-07-26T09:30:15.353Z,29.26
2018-07-26T09:31:24.837Z,29.26
2018-07-26T09:32:34.239Z,29.3
2018-07-26T09:33:43.159Z,29.31
2018-07-26T09:34:52.582Z,29.24
2018-07-26T09:36:01.744Z,29.3
2018-07-26T09:37:10.661Z,29.16
2018-07-26T09:38:20.615Z,29.12
2018-07-26T09:39:30.535Z,29.21
2018-07-26T09:40:39.964Z,29.21
2018-07-26T09:41:49.124Z,29.21
2018-07-26T09:42:58.031Z,29.21
2018-07-26T09:44:07.191Z,29.31
2018-07-26T09:45:16.856Z,29.24
2018-07-26T09:46:26.283Z,29.24
2018-07-26T09:47:35.699Z,29.26
2018-07-26T09:48:44.861Z,29.28
2018-07-26T09:49:54.753Z,29.24
2018-07-26T09:51:03.662Z,29.19
2018-07-26T09:52:13.077Z,29.23
2018-07-26T09:53:21.969Z,29.26
2018-07-26T09:54:31.123Z,29.27
2018-07-26T09:55:40.293Z,29.19
2018-07-26T09:56:49.975Z,29.19
2018-07-26T09:57:59.396Z,29.24
2018-07-26T09:59:09.080Z,29.24
2018-07-26T10:00:18.338Z,29.21
2018-07-26T10:01:27.281Z,29.18
2018-07-26T10:02:36.751Z,29.21
2018-07-26T10:03:45.389Z,29.27
2018-07-26T10:04:54.295Z,29.28
2018-07-26T10:06:04.235Z,29.18
2018-07-26T10:07:13.646Z,29.28
2018-07-26T10:08:22.562Z,29.23
2018-07-26T10:09:31.974Z,29.23
2018-07-26T10:10:41.400Z,29.24
2018-07-26T10:11:50.828Z,29.26
2018-07-26T10:13:00.298Z,29.27
2018-07-26T10:14:09.716Z,29.26
2018-07-26T10:15:19.540Z,29.24
2018-07-26T10:16:28.763Z,29.27
2018-07-26T10:17:38.692Z,29.24
2018-07-26T10:18:47.859Z,29.28
2018-07-26T10:19:57.573Z,29.24
2018-07-26T10:21:06.501Z,29.24
2018-07-26T10:22:15.700Z,29.26
2018-07-26T10:23:25.389Z,29.21
2018-07-26T10:24:34.805Z,29.24
2018-07-26T10:25:43.969Z,29.24
2018-07-26T10:26:53.132Z,29.27
2018-07-26T10:28:02.535Z,29.26
2018-07-26T10:29:12.118Z,29.3
2018-07-26T10:30:21.012Z,29.27
2018-07-26T10:31:30.154Z,29.26
2018-07-26T10:32:39.817Z,29.36
2018-07-26T10:33:49.477Z,29.21
2018-07-26T10:34:58.906Z,29.27
2018-07-26T10:36:08.337Z,29.24
2018-07-26T10:37:17.751Z,29.3
2018-07-26T10:38:27.162Z,29.31
2018-07-26T10:39:36.914Z,29.23
2018-07-26T10:40:46.843Z,29.21
2018-07-26T10:41:56.005Z,29.27
2018-07-26T10:43:05.664Z,29.26
2018-07-26T10:44:14.562Z,29.33
2018-07-26T10:45:24.246Z,29.26
2018-07-26T10:46:33.697Z,29.26
2018-07-26T10:47:42.862Z,29.23
2018-07-26T10:48:52.277Z,29.24
2018-07-26T10:50:01.777Z,29.33
2018-07-26T10:51:11.304Z,29.26
2018-07-26T10:52:20.713Z,29.23
2018-07-26T10:53:30.134Z,29.24
2018-07-26T10:54:39.813Z,29.24
2018-07-26T10:55:49.216Z,29.26
2018-07-26T10:56:58.645Z,29.28
2018-07-26T10:58:07.561Z,29.27
2018-07-26T10:59:16.970Z,29.26
2018-07-26T11:00:26.648Z,29.33
2018-07-26T11:01:35.715Z,29.27
2018-07-26T11:02:45.129Z,29.3
2018-07-26T11:03:54.704Z,29.28
2018-07-26T11:05:04.566Z,29.3
2018-07-26T11:06:13.468Z,29.27
2018-07-26T11:07:22.886Z,29.28
2018-07-26T11:08:32.306Z,29.28
2018-07-26T11:09:41.885Z,29.24
2018-07-26T11:10:51.162Z,29.27
2018-07-26T11:12:00.828Z,29.3
2018-07-26T11:13:10.237Z,29.28
2018-07-26T11:14:19.394Z,29.3
2018-07-26T11:15:29.052Z,29.27
2018-07-26T11:16:38.941Z,29.24
2018-07-26T11:17:47.823Z,29.36
2018-07-26T11:18:57.138Z,29.31
2018-07-26T11:20:06.689Z,29.34
2018-07-26T11:21:16.117Z,29.31
2018-07-26T11:22:25.800Z,29.28
2018-07-26T11:23:35.221Z,29.27
2018-07-26T11:24:44.585Z,29.27
2018-07-26T11:25:53.862Z,29.31
2018-07-26T11:27:03.338Z,29.3
2018-07-26T11:28:13.116Z,29.28
2018-07-26T11:29:23.043Z,29.27
2018-07-26T11:30:32.490Z,29.26
2018-07-26T11:31:41.932Z,29.27
2018-07-26T11:32:51.085Z,29.36
2018-07-26T11:33:59.995Z,29.36
2018-07-26T11:35:09.402Z,29.28
2018-07-26T11:36:18.817Z,29.31
2018-07-26T11:37:27.989Z,29.31
2018-07-26T11:38:37.659Z,29.27
2018-07-26T11:39:47.080Z,29.33
2018-07-26T11:40:56.240Z,29.31
2018-07-26T11:42:05.661Z,29.33
2018-07-26T11:43:14.552Z,29.31
2018-07-26T11:44:23.706Z,29.28
2018-07-26T11:45:32.593Z,29.26
2018-07-26T11:46:41.242Z,29.28
2018-07-26T11:47:50.144Z,29.31
2018-07-26T11:48:59.303Z,29.31
2018-07-26T11:50:08.567Z,29.3
2018-07-26T11:51:18.096Z,29.33
2018-07-26T11:52:26.996Z,29.34
2018-07-26T11:53:36.406Z,29.41
2018-07-26T11:54:46.078Z,29.3
2018-07-26T11:55:55.240Z,29.3
2018-07-26T11:57:04.828Z,29.31
2018-07-26T11:58:14.229Z,29.31
2018-07-26T11:59:23.641Z,29.33
2018-07-26T12:00:32.542Z,29.34
2018-07-26T12:01:42.634Z,29.31
2018-07-26T12:02:52.081Z,29.36
2018-07-26T12:04:01.249Z,29.3
2018-07-26T12:05:10.660Z,29.31
2018-07-26T12:06:19.556Z,29.34
2018-07-26T12:07:28.721Z,29.36
2018-07-26T12:08:38.390Z,29.36
2018-07-26T12:09:47.827Z,29.37
2018-07-26T12:10:57.252Z,29.41
2018-07-26T12:12:06.150Z,29.36
2018-07-26T12:13:15.311Z,29.3
2018-07-26T12:14:25.181Z,29.37
2018-07-26T12:15:34.990Z,29.34
2018-07-26T12:16:44.654Z,29.41
2018-07-26T12:17:53.948Z,29.41
2018-07-26T12:19:03.105Z,29.33
2018-07-26T12:20:12.063Z,29.39
2018-07-26T12:21:21.227Z,29.37
2018-07-26T12:22:30.394Z,29.41
2018-07-26T12:23:39.819Z,29.39
2018-07-26T12:24:48.994Z,29.39
2018-07-26T12:25:58.676Z,29.36
2018-07-26T12:27:08.481Z,29.33
2018-07-26T12:28:18.589Z,29.34
2018-07-26T12:29:28.059Z,29.37
2018-07-26T12:30:37.489Z,29.37
2018-07-26T12:31:47.166Z,29.33
2018-07-26T12:32:57.116Z,29.26
2018-07-26T12:34:06.289Z,29.41
2018-07-26T12:35:15.694Z,29.42
2018-07-26T12:36:25.111Z,29.36
2018-07-26T12:37:34.015Z,29.36
2018-07-26T12:38:42.911Z,29.42
2018-07-26T12:39:52.331Z,29.37
2018-07-26T12:41:01.790Z,29.37
2018-07-26T12:42:11.342Z,29.36
2018-07-26T12:43:20.245Z,29.45
2018-07-26T12:44:29.408Z,29.43
2018-07-26T12:45:38.571Z,29.41
2018-07-26T12:46:48.241Z,29.36
2018-07-26T12:47:58.254Z,29.39
2018-07-26T12:49:07.672Z,29.37
2018-07-26T12:50:16.855Z,29.34
2018-07-26T12:51:26.003Z,29.34
2018-07-26T12:52:35.156Z,29.39
2018-07-26T12:53:44.862Z,29.33
2018-07-26T12:54:55.037Z,29.41
2018-07-26T12:56:04.532Z,29.39
2018-07-26T12:57:13.689Z,29.39
2018-07-26T12:58:22.847Z,29.33
2018-07-26T12:59:32.260Z,29.41
2018-07-26T13:00:41.683Z,29.41
2018-07-26T13:01:51.039Z,29.39
2018-07-26T13:03:00.094Z,29.43
2018-07-26T13:04:09.504Z,29.41
2018-07-26T13:05:18.923Z,29.48
2018-07-26T13:06:28.594Z,29.34
2018-07-26T13:07:38.255Z,29.42
2018-07-26T13:08:47.415Z,29.45
2018-07-26T13:09:56.326Z,29.46
2018-07-26T13:11:06.006Z,29.48
2018-07-26T13:12:15.470Z,29.48
2018-07-26T13:13:24.753Z,29.42
2018-07-26T13:14:34.173Z,29.41
2018-07-26T13:15:43.134Z,29.51
2018-07-26T13:16:52.023Z,29.49
2018-07-26T13:18:01.685Z,29.51
2018-07-26T13:19:10.837Z,29.49
2018-07-26T13:20:19.744Z,29.51
2018-07-26T13:21:29.424Z,29.48
2018-07-26T13:22:38.584Z,29.43
2018-07-26T13:23:48.258Z,29.49
2018-07-26T13:24:57.664Z,29.45
2018-07-26T13:26:07.089Z,29.49
2018-07-26T13:27:16.865Z,29.51
2018-07-26T13:28:27.342Z,29.52
2018-07-26T13:29:36.770Z,29.51
2018-07-26T13:30:45.944Z,29.45
2018-07-26T13:31:55.356Z,29.46
2018-07-26T13:33:05.021Z,29.53
2018-07-26T13:34:14.823Z,29.53
2018-07-26T13:35:24.699Z,29.51
2018-07-26T13:36:34.113Z,29.58
2018-07-26T13:37:43.779Z,29.57
2018-07-26T13:38:52.765Z,29.57
2018-07-26T13:40:02.367Z,29.61
2018-07-26T13:41:11.735Z,29.51
2018-07-26T13:42:21.149Z,29.58
2018-07-26T13:43:30.080Z,29.53
2018-07-26T13:44:39.547Z,29.6
2018-07-26T13:45:48.708Z,29.65
2018-07-26T13:46:57.629Z,29.55
2018-07-26T13:48:06.842Z,29.6
2018-07-26T13:49:15.991Z,29.63
2018-07-26T13:50:24.908Z,29.58
2018-07-26T13:51:34.066Z,29.64
2018-07-26T13:52:44.078Z,29.63
2018-07-26T13:53:53.589Z,29.6
2018-07-26T13:55:02.745Z,29.57
2018-07-26T13:56:11.640Z,29.68
2018-07-26T13:57:21.314Z,29.63
2018-07-26T13:58:31.046Z,29.61
2018-07-26T13:59:40.890Z,29.65
2018-07-26T14:00:50.564Z,29.61
2018-07-26T14:01:59.460Z,29.71
2018-07-26T14:03:09.137Z,29.65
2018-07-26T14:04:18.287Z,29.63
2018-07-26T14:05:27.687Z,29.63
2018-07-26T14:06:36.852Z,29.63
2018-07-26T14:07:46.007Z,29.67
2018-07-26T14:08:55.164Z,29.7
2018-07-26T14:10:04.075Z,29.67
2018-07-26T14:11:13.234Z,29.67
2018-07-26T14:12:22.640Z,29.7
2018-07-26T14:13:31.809Z,29.68
2018-07-26T14:14:41.006Z,29.7
2018-07-26T14:15:50.704Z,29.68
2018-07-26T14:17:00.830Z,29.68
2018-07-26T14:18:10.497Z,29.73
2018-07-26T14:19:19.924Z,29.71
2018-07-26T14:20:29.605Z,29.82
2018-07-26T14:21:39.277Z,29.67
2018-07-26T14:22:48.747Z,29.8
2018-07-26T14:23:58.433Z,29.78
2018-07-26T14:25:07.834Z,29.83
2018-07-26T14:26:17.275Z,29.82
2018-07-26T14:27:26.828Z,29.79
2018-07-26T14:28:35.961Z,29.74
2018-07-26T14:29:45.619Z,29.73
2018-07-26T14:30:55.300Z,29.74
2018-07-26T14:32:05.236Z,29.86
2018-07-26T14:33:14.385Z,29.87
2018-07-26T14:34:23.279Z,29.82
2018-07-26T14:35:32.170Z,29.9
2018-07-26T14:36:41.831Z,29.85
2018-07-26T14:37:51.491Z,29.86
2018-07-26T14:39:01.148Z,29.89
2018-07-26T14:40:10.307Z,29.87
2018-07-26T14:41:19.746Z,29.86
2018-07-26T14:42:28.637Z,29.94
2018-07-26T14:43:37.826Z,29.95
2018-07-26T14:44:47.693Z,29.94
2018-07-26T14:45:57.181Z,29.92
2018-07-26T14:47:06.058Z,29.9
2018-07-26T14:48:15.750Z,29.95
2018-07-26T14:49:25.417Z,29.92
2018-07-26T14:50:34.824Z,29.9
2018-07-26T14:51:43.751Z,29.95
2018-07-26T14:52:53.588Z,29.94
2018-07-26T14:54:03.063Z,29.92
2018-07-26T14:55:12.562Z,29.92
2018-07-26T14:56:22.226Z,29.95
2018-07-26T14:57:31.193Z,29.92